Time;durP1;ratioP1;P1;durP2;ratioP2;P2;SDS_P1;SDS_P2;PMS_P1;PMS_P2;Temp;Humidity;BMP_temperature;BMP_pressure;BME280_temperature;BME280_humidity;BME280_pressure;Samples;Min_cycle;Max_cycle;Signal;HPM_P1;HPM_P2
2023/11/20 00:00:13;;;;;;;0.10;0.10;;;12.60;99.90;;;;;;5061759;28;20249;-77
2023/11/20 00:02:42;;;;;;;0.10;0.10;;;12.60;99.90;;;;;;5060377;28;20782;-77
2023/11/20 00:05:09;;;;;;;0.10;0.10;;;12.60;99.90;;;;;;5058762;28;20185;-77
2023/11/20 00:07:35;;;;;;;0.10;0.10;;;12.60;99.90;;;;;;5060604;28;20198;-78
2023/11/20 00:10:01;;;;;;;0.10;0.10;;;12.60;99.90;;;;;;5058487;28;20185;-78
2023/11/20 00:12:27;;;;;;;0.10;0.10;;;12.60;99.90;;;;;;5060506;28;20527;-78
2023/11/20 00:14:52;;;;;;;0.10;0.10;;;12.60;99.90;;;;;;5060272;28;20191;-77
2023/11/20 00:17:18;;;;;;;0.10;0.10;;;12.60;99.90;;;;;;5060545;28;20613;-78
2023/11/20 00:19:45;;;;;;;0.10;0.10;;;12.50;99.90;;;;;;5060439;28;20205;-78
2023/11/20 00:22:10;;;;;;;0.10;0.10;;;12.50;99.90;;;;;;5058890;28;20177;-78
2023/11/20 00:24:37;;;;;;;0.10;0.10;;;12.50;99.90;;;;;;5060072;28;20193;-78
2023/11/20 00:27:05;;;;;;;0.10;0.10;;;12.50;99.90;;;;;;5059212;28;20204;-78
2023/11/20 00:29:30;;;;;;;0.10;0.10;;;12.50;99.90;;;;;;5060821;28;20291;-78
2023/11/20 00:31:56;;;;;;;0.10;0.10;;;12.50;99.90;;;;;;5059343;28;20274;-78
2023/11/20 00:34:22;;;;;;;0.10;0.10;;;12.50;99.90;;;;;;5057781;28;20186;-78
2023/11/20 00:36:47;;;;;;;0.10;0.10;;;12.50;99.90;;;;;;5060240;28;20654;-78
2023/11/20 00:39:13;;;;;;;0.10;0.10;;;12.50;99.90;;;;;;5057583;28;20574;-78
2023/11/20 00:41:38;;;;;;;0.10;0.10;;;12.50;99.90;;;;;;5059589;28;20173;-78
2023/11/20 00:44:06;;;;;;;0.10;0.10;;;12.50;99.90;;;;;;5059124;28;20182;-78
2023/11/20 00:46:32;;;;;;;0.10;0.10;;;12.50;99.90;;;;;;5058306;28;20286;-78
2023/11/20 00:48:58;;;;;;;0.10;0.10;;;12.50;99.90;;;;;;5060490;28;20747;-78
2023/11/20 00:51:25;;;;;;;0.10;0.10;;;12.50;99.90;;;;;;5059496;28;20269;-78
2023/11/20 00:53:51;;;;;;;0.10;0.10;;;12.50;99.90;;;;;;5058621;28;20703;-78
2023/11/20 00:56:19;;;;;;;0.00;0.00;;;12.50;99.90;;;;;;5059996;28;20197;-78
2023/11/20 00:58:45;;;;;;;0.10;0.10;;;12.50;99.90;;;;;;5056852;28;20274;-77
2023/11/20 01:01:10;;;;;;;0.10;0.10;;;12.50;99.90;;;;;;5059957;28;20213;-78
2023/11/20 01:03:37;;;;;;;0.10;0.10;;;12.50;99.90;;;;;;5060316;28;20189;-78
2023/11/20 01:06:04;;;;;;;0.10;0.10;;;12.50;99.90;;;;;;5060471;28;20178;-79
2023/11/20 01:08:30;;;;;;;0.10;0.10;;;12.50;99.90;;;;;;5059804;28;20208;-79
2023/11/20 01:10:56;;;;;;;0.10;0.10;;;12.50;99.90;;;;;;5058208;28;20185;-78
2023/11/20 01:13:21;;;;;;;0.10;0.10;;;12.50;99.90;;;;;;5059207;28;20289;-78
2023/11/20 01:15:47;;;;;;;0.10;0.10;;;12.50;99.90;;;;;;5060470;28;20661;-78
2023/11/20 01:18:14;;;;;;;0.10;0.10;;;12.50;99.90;;;;;;5059745;28;20204;-79
2023/11/20 01:20:40;;;;;;;0.10;0.10;;;12.50;99.90;;;;;;5058908;28;20235;-78
2023/11/20 01:23:05;;;;;;;0.10;0.10;;;12.50;99.90;;;;;;5056874;28;20676;-78
2023/11/20 01:25:31;;;;;;;0.10;0.10;;;12.50;99.90;;;;;;5059504;28;20209;-78
2023/11/20 01:27:58;;;;;;;0.10;0.10;;;12.50;99.90;;;;;;5057313;28;20208;-77
2023/11/20 01:30:25;;;;;;;0.10;0.10;;;12.50;99.90;;;;;;5059360;28;20193;-78
2023/11/20 01:32:51;;;;;;;0.10;0.10;;;12.50;99.90;;;;;;5057723;28;20688;-78
2023/11/20 01:35:16;;;;;;;0.10;0.10;;;12.50;99.90;;;;;;5060140;28;20196;-78
2023/11/20 01:37:42;;;;;;;0.10;0.10;;;12.50;99.90;;;;;;5060480;28;20225;-77
2023/11/20 01:40:08;;;;;;;0.10;0.10;;;12.60;99.90;;;;;;5064600;28;20736;-78
2023/11/20 01:42:33;;;;;;;0.10;0.10;;;12.50;99.90;;;;;;5062821;28;20184;-78
2023/11/20 01:44:59;;;;;;;0.10;0.10;;;12.60;99.90;;;;;;5062398;28;20272;-78
2023/11/20 01:47:25;;;;;;;0.10;0.10;;;12.50;99.90;;;;;;5062677;28;20185;-78
2023/11/20 01:49:51;;;;;;;0.10;0.10;;;12.60;99.90;;;;;;5062574;28;20268;-78
2023/11/20 01:52:17;;;;;;;0.10;0.10;;;12.50;99.90;;;;;;5061331;28;20190;-78
2023/11/20 01:54:43;;;;;;;0.10;0.10;;;12.50;99.90;;;;;;5062646;28;20197;-78
2023/11/20 01:57:10;;;;;;;0.10;0.10;;;12.50;99.90;;;;;;5064294;28;20212;-78
2023/11/20 01:59:37;;;;;;;0.10;0.10;;;12.50;99.90;;;;;;5062492;28;20218;-78
2023/11/20 02:02:03;;;;;;;0.07;0.07;;;12.50;99.90;;;;;;5062513;28;20183;-78
2023/11/20 02:04:28;;;;;;;0.10;0.10;;;12.50;99.90;;;;;;5063195;28;20186;-78
2023/11/20 02:06:54;;;;;;;0.10;0.10;;;12.50;99.90;;;;;;5062770;28;20189;-78
2023/11/20 02:09:19;;;;;;;0.10;0.10;;;12.50;99.90;;;;;;5062981;28;20217;-78
2023/11/20 02:11:46;;;;;;;0.10;0.10;;;12.40;99.90;;;;;;5062913;28;20185;-78
2023/11/20 02:14:15;;;;;;;0.10;0.10;;;12.50;99.90;;;;;;5063339;28;20231;-78
2023/11/20 02:16:41;;;;;;;0.10;0.10;;;12.50;99.90;;;;;;5061776;28;20193;-78
2023/11/20 02:19:11;;;;;;;0.10;0.10;;;12.40;99.90;;;;;;5063136;28;20203;-79
2023/11/20 02:21:37;;;;;;;0.10;0.10;;;12.40;99.90;;;;;;5062939;28;20268;-78
2023/11/20 02:24:03;;;;;;;0.10;0.10;;;12.40;99.90;;;;;;5062618;28;20264;-78
2023/11/20 02:26:49;;;;;;;0.10;0.10;;;12.40;99.90;;;;;;5062730;28;20243;-78
2023/11/20 02:29:33;;;;;;;0.10;0.10;;;12.40;99.90;;;;;;5061590;28;20221;-78
2023/11/20 02:31:58;;;;;;;0.10;0.10;;;12.40;99.90;;;;;;5062633;28;20173;-78
2023/11/20 02:34:24;;;;;;;0.10;0.10;;;12.40;99.90;;;;;;5062801;28;20174;-77
2023/11/20 02:36:50;;;;;;;0.10;0.10;;;12.40;99.90;;;;;;5062434;28;20676;-77
2023/11/20 02:39:15;;;;;;;0.10;0.10;;;12.40;99.90;;;;;;5062756;28;20256;-78
2023/11/20 02:41:43;;;;;;;0.10;0.10;;;12.40;99.90;;;;;;5062810;28;20243;-78
2023/11/20 02:44:08;;;;;;;0.10;0.10;;;12.40;99.90;;;;;;5062750;28;20268;-78
2023/11/20 02:46:34;;;;;;;0.10;0.10;;;12.40;99.90;;;;;;5061208;28;20196;-78
2023/11/20 02:48:59;;;;;;;0.10;0.10;;;12.40;99.90;;;;;;5059287;28;20206;-78
2023/11/20 02:51:27;;;;;;;0.10;0.10;;;12.40;99.90;;;;;;5061937;28;20264;-78
2023/11/20 02:53:53;;;;;;;0.10;0.10;;;12.40;99.90;;;;;;5061933;28;20186;-78
2023/11/20 02:56:18;;;;;;;0.00;0.00;;;12.40;99.90;;;;;;5062572;28;20328;-77
2023/11/20 02:58:44;;;;;;;0.10;0.10;;;12.30;99.90;;;;;;5061575;28;20213;-78
2023/11/20 03:01:09;;;;;;;0.10;0.10;;;12.30;99.90;;;;;;5060938;28;20234;-78
2023/11/20 03:03:39;;;;;;;0.10;0.10;;;12.30;99.90;;;;;;5061683;28;20652;-77
2023/11/20 03:06:06;;;;;;;0.10;0.10;;;12.30;99.90;;;;;;5060319;28;20183;-78
2023/11/20 03:08:31;;;;;;;0.10;0.10;;;12.30;99.90;;;;;;5061887;28;20197;-78
2023/11/20 03:10:57;;;;;;;0.10;0.10;;;12.30;99.90;;;;;;5061085;28;20844;-78
2023/11/20 03:13:23;;;;;;;0.10;0.10;;;12.30;99.90;;;;;;5061487;28;20201;-77
2023/11/20 03:15:50;;;;;;;0.10;0.10;;;12.20;99.90;;;;;;5060537;28;20260;-77
2023/11/20 03:18:16;;;;;;;0.10;0.10;;;12.20;99.90;;;;;;5059569;28;20213;-77
2023/11/20 03:20:42;;;;;;;0.10;0.10;;;12.20;99.90;;;;;;5061173;28;20217;-78
2023/11/20 03:23:07;;;;;;;0.10;0.10;;;12.20;99.90;;;;;;5060952;28;20758;-77
2023/11/20 03:25:33;;;;;;;0.10;0.10;;;12.10;99.90;;;;;;5062003;28;20193;-77
2023/11/20 03:27:58;;;;;;;0.10;0.10;;;12.10;99.90;;;;;;5060671;28;20198;-78
2023/11/20 03:30:24;;;;;;;0.10;0.10;;;12.10;99.90;;;;;;5061845;28;20306;-77
2023/11/20 03:32:49;;;;;;;0.10;0.10;;;12.10;99.90;;;;;;5059247;28;20193;-77
2023/11/20 03:35:15;;;;;;;0.10;0.10;;;12.20;99.90;;;;;;5061010;28;20177;-77
2023/11/20 03:37:40;;;;;;;0.10;0.10;;;12.10;99.90;;;;;;5059477;28;20251;-78
2023/11/20 03:40:07;;;;;;;0.10;0.10;;;12.20;99.90;;;;;;5060374;28;20205;-78
2023/11/20 03:42:34;;;;;;;0.10;0.10;;;12.10;99.90;;;;;;5060069;28;20388;-78
2023/11/20 03:44:59;;;;;;;0.10;0.10;;;12.20;99.90;;;;;;5060561;28;20173;-77
2023/11/20 03:47:25;;;;;;;0.10;0.10;;;12.20;99.90;;;;;;5061981;28;20189;-77
2023/11/20 03:49:50;;;;;;;0.10;0.10;;;12.20;99.90;;;;;;5061476;28;20186;-78
2023/11/20 03:52:16;;;;;;;0.10;0.10;;;12.20;99.90;;;;;;5060500;28;20259;-77
2023/11/20 03:54:42;;;;;;;0.10;0.10;;;12.20;99.90;;;;;;5060797;28;21163;-78
2023/11/20 03:57:08;;;;;;;0.10;0.10;;;12.10;99.90;;;;;;5059505;28;20177;-78
2023/11/20 03:59:33;;;;;;;0.10;0.10;;;12.20;99.90;;;;;;5060733;28;20219;-78
2023/11/20 04:01:59;;;;;;;0.10;0.10;;;12.10;99.90;;;;;;5060167;28;20287;-78
2023/11/20 04:04:24;;;;;;;0.10;0.10;;;12.20;99.90;;;;;;5061375;28;20178;-77
2023/11/20 04:06:50;;;;;;;0.10;0.10;;;12.20;99.90;;;;;;5058352;28;20279;-78
2023/11/20 04:09:16;;;;;;;0.10;0.10;;;12.20;99.90;;;;;;5059107;28;20205;-78
2023/11/20 04:11:41;;;;;;;0.10;0.10;;;12.20;99.90;;;;;;5059506;28;20186;-78
2023/11/20 04:14:07;;;;;;;0.10;0.10;;;12.20;99.90;;;;;;5060251;28;20216;-78
2023/11/20 04:16:33;;;;;;;0.20;0.20;;;12.20;99.90;;;;;;5058674;28;20196;-78
2023/11/20 04:18:59;;;;;;;0.10;0.10;;;12.20;99.90;;;;;;5060169;28;20626;-78
2023/11/20 04:21:25;;;;;;;0.10;0.10;;;12.20;99.90;;;;;;5060113;28;20224;-78
2023/11/20 04:23:52;;;;;;;0.10;0.10;;;12.20;99.90;;;;;;5059943;28;21159;-78
2023/11/20 04:26:17;;;;;;;0.10;0.10;;;12.20;99.90;;;;;;5060764;28;20625;-78
2023/11/20 04:28:43;;;;;;;0.10;0.10;;;12.20;99.90;;;;;;5059429;28;20250;-78
2023/11/20 04:31:08;;;;;;;0.10;0.10;;;12.20;99.90;;;;;;5060339;28;20535;-78
2023/11/20 04:33:34;;;;;;;0.10;0.10;;;12.20;99.90;;;;;;5060397;28;20196;-78
2023/11/20 04:36:02;;;;;;;0.10;0.10;;;12.20;99.90;;;;;;5058679;28;20326;-78
2023/11/20 04:38:30;;;;;;;0.10;0.10;;;12.20;99.90;;;;;;5059824;28;20230;-78
2023/11/20 04:40:59;;;;;;;0.10;0.10;;;12.20;99.90;;;;;;5060642;28;20216;-78
2023/11/20 04:43:24;;;;;;;0.10;0.10;;;12.10;99.90;;;;;;5058454;28;20251;-78
2023/11/20 04:45:50;;;;;;;0.10;0.10;;;12.20;99.90;;;;;;5060597;28;20653;-78
2023/11/20 04:48:17;;;;;;;0.10;0.10;;;12.10;99.90;;;;;;5059168;28;20254;-78
2023/11/20 04:50:43;;;;;;;0.10;0.10;;;12.10;99.90;;;;;;5060077;28;20221;-77
2023/11/20 04:53:09;;;;;;;0.10;0.10;;;12.10;99.90;;;;;;5060839;28;20181;-77
2023/11/20 04:55:34;;;;;;;0.10;0.10;;;12.10;99.90;;;;;;5057730;28;20554;-78
2023/11/20 04:58:00;;;;;;;0.10;0.10;;;12.10;99.90;;;;;;5060491;28;20256;-78
2023/11/20 05:00:26;;;;;;;0.03;0.03;;;12.10;99.90;;;;;;5060596;28;20204;-78
2023/11/20 05:02:51;;;;;;;0.10;0.10;;;12.10;99.90;;;;;;5060865;28;20186;-78
2023/11/20 05:05:17;;;;;;;0.10;0.10;;;12.10;99.90;;;;;;5058708;28;20643;-77
2023/11/20 05:07:43;;;;;;;0.10;0.10;;;12.00;99.90;;;;;;5060277;28;20661;-78
2023/11/20 05:10:08;;;;;;;0.10;0.10;;;12.00;99.90;;;;;;5058575;28;20242;-78
2023/11/20 05:12:34;;;;;;;0.10;0.10;;;12.00;99.90;;;;;;5058241;28;20197;-77
2023/11/20 05:14:59;;;;;;;0.10;0.10;;;12.00;99.90;;;;;;5060077;28;20182;-77
2023/11/20 05:17:25;;;;;;;0.10;0.10;;;12.00;99.90;;;;;;5060363;28;20231;-77
2023/11/20 05:19:50;;;;;;;0.10;0.10;;;12.00;99.90;;;;;;5059089;28;20213;-77
2023/11/20 05:22:17;;;;;;;0.10;0.10;;;12.00;99.90;;;;;;5061133;28;20187;-77
2023/11/20 05:24:43;;;;;;;0.10;0.10;;;11.90;99.90;;;;;;5059141;28;20612;-77
2023/11/20 05:27:09;;;;;;;0.10;0.10;;;11.90;99.90;;;;;;5056582;28;20276;-78
2023/11/20 05:29:38;;;;;;;0.10;0.10;;;11.90;99.90;;;;;;5057071;28;20200;-78
2023/11/20 05:32:05;;;;;;;0.10;0.10;;;11.80;99.90;;;;;;5057645;28;20189;-78
2023/11/20 05:34:30;;;;;;;0.10;0.10;;;11.80;99.90;;;;;;5058323;28;20197;-78
2023/11/20 05:36:56;;;;;;;0.10;0.10;;;11.80;99.90;;;;;;5057621;28;20174;-78
2023/11/20 05:39:22;;;;;;;0.10;0.10;;;11.80;99.90;;;;;;5059107;28;20208;-77
2023/11/20 05:41:48;;;;;;;0.10;0.10;;;11.70;99.90;;;;;;5058272;28;20549;-77
2023/11/20 05:44:14;;;;;;;0.10;0.10;;;11.70;99.90;;;;;;5058798;28;20179;-78
2023/11/20 05:46:39;;;;;;;0.10;0.10;;;11.70;99.90;;;;;;5057819;28;20184;-78
2023/11/20 05:49:05;;;;;;;0.10;0.10;;;11.70;99.90;;;;;;5058125;28;20189;-77
2023/11/20 05:51:30;;;;;;;0.10;0.10;;;11.70;99.90;;;;;;5056441;28;21059;-77
2023/11/20 05:53:57;;;;;;;0.10;0.10;;;11.70;99.90;;;;;;5058043;28;20555;-77
2023/11/20 05:56:23;;;;;;;0.10;0.10;;;11.60;99.90;;;;;;5058374;28;20208;-78
2023/11/20 05:58:48;;;;;;;0.10;0.10;;;11.60;99.90;;;;;;5059487;28;20645;-77
2023/11/20 06:01:14;;;;;;;0.10;0.10;;;11.50;99.90;;;;;;5058275;28;20205;-77
2023/11/20 06:03:39;;;;;;;0.10;0.10;;;11.50;99.90;;;;;;5058721;28;20204;-77
2023/11/20 06:06:05;;;;;;;0.10;0.10;;;11.40;99.90;;;;;;5057916;28;20370;-78
2023/11/20 06:08:31;;;;;;;0.10;0.10;;;11.40;99.90;;;;;;5058583;28;20205;-78
2023/11/20 06:10:56;;;;;;;0.10;0.10;;;11.30;99.90;;;;;;5056624;28;20724;-78
2023/11/20 06:13:22;;;;;;;0.10;0.10;;;11.30;99.90;;;;;;5057854;28;20292;-78
2023/11/20 06:15:47;;;;;;;0.10;0.10;;;11.20;99.90;;;;;;5061832;28;20181;-79
2023/11/20 06:18:13;;;;;;;0.10;0.10;;;11.20;99.90;;;;;;5057719;28;20244;-78
2023/11/20 06:20:39;;;;;;;0.03;0.03;;;11.20;99.90;;;;;;5058725;28;20244;-79
2023/11/20 06:23:06;;;;;;;18.60;17.37;;;11.20;99.90;;;;;;5059817;28;20668;-78
2023/11/20 06:25:31;;;;;;;0.10;0.10;;;11.20;99.90;;;;;;5059895;28;20177;-79
2023/11/20 06:27:57;;;;;;;0.10;0.10;;;11.20;99.90;;;;;;5062130;28;20735;-79
2023/11/20 06:30:22;;;;;;;0.10;0.10;;;11.20;99.90;;;;;;5062509;28;20185;-79
2023/11/20 06:32:48;;;;;;;0.10;0.10;;;11.30;99.90;;;;;;5060897;28;20196;-78
2023/11/20 06:35:13;;;;;;;0.07;0.07;;;11.30;99.90;;;;;;5061492;28;20269;-79
2023/11/20 06:37:39;;;;;;;0.10;0.10;;;11.20;99.90;;;;;;5063133;28;20221;-78
2023/11/20 06:40:06;;;;;;;0.10;0.10;;;11.20;99.90;;;;;;5062891;28;20224;-78
2023/11/20 06:42:31;;;;;;;0.10;0.10;;;11.20;99.90;;;;;;5062933;28;20184;-78
2023/11/20 06:44:57;;;;;;;0.10;0.10;;;11.30;99.90;;;;;;5061365;28;20185;-78
2023/11/20 06:47:22;;;;;;;0.00;0.00;;;11.30;99.90;;;;;;5063184;28;20676;-78
2023/11/20 06:49:48;;;;;;;0.00;0.00;;;11.30;99.90;;;;;;5063439;28;20189;-78
2023/11/20 06:52:16;;;;;;;0.10;0.10;;;11.30;99.90;;;;;;5062736;28;20655;-79
2023/11/20 06:54:42;;;;;;;0.10;0.10;;;11.30;99.90;;;;;;5061725;28;20196;-78
2023/11/20 06:57:09;;;;;;;0.10;0.10;;;11.40;99.90;;;;;;5059595;28;20717;-79
2023/11/20 06:59:34;;;;;;;0.10;0.10;;;11.40;99.90;;;;;;5062463;28;20223;-78
2023/11/20 07:02:00;;;;;;;0.10;0.10;;;11.40;99.90;;;;;;5062842;28;20284;-79
2023/11/20 07:04:26;;;;;;;0.00;0.00;;;11.40;99.90;;;;;;5061271;28;20182;-79
2023/11/20 07:06:51;;;;;;;0.10;0.10;;;11.40;99.90;;;;;;5060801;28;20214;-79
2023/11/20 07:09:18;;;;;;;0.10;0.10;;;11.40;99.90;;;;;;5061638;28;20871;-79
2023/11/20 07:11:44;;;;;;;0.10;0.10;;;11.40;99.90;;;;;;5061471;28;20184;-79
2023/11/20 07:14:11;;;;;;;0.10;0.10;;;11.50;99.90;;;;;;5060523;28;20184;-78
2023/11/20 07:16:37;;;;;;;0.10;0.10;;;11.50;99.90;;;;;;5060268;28;20188;-78
2023/11/20 07:19:04;;;;;;;0.10;0.10;;;11.50;99.90;;;;;;5058939;28;20197;-79
2023/11/20 07:21:29;;;;;;;0.10;0.10;;;11.50;99.90;;;;;;5060514;28;20205;-79
2023/11/20 07:23:57;;;;;;;0.10;0.10;;;11.50;99.90;;;;;;5054521;28;20574;-79
2023/11/20 07:26:23;;;;;;;0.10;0.10;;;11.50;99.90;;;;;;5059467;28;20178;-79
2023/11/20 07:28:48;;;;;;;0.10;0.10;;;11.50;99.90;;;;;;5058910;28;20263;-79
2023/11/20 07:31:24;;;;;;;0.10;0.10;;;11.50;99.90;;;;;;5058345;28;20239;-79
2023/11/20 07:33:50;;;;;;;0.10;0.10;;;11.60;99.90;;;;;;5055526;28;20341;-79
2023/11/20 07:36:17;;;;;;;0.10;0.10;;;11.60;99.90;;;;;;5055507;28;20608;-79
2023/11/20 07:38:43;;;;;;;0.10;0.10;;;11.70;99.90;;;;;;5058021;28;20253;-79
2023/11/20 07:41:08;;;;;;;0.10;0.10;;;11.60;99.90;;;;;;5057495;28;20247;-78
2023/11/20 07:43:34;;;;;;;0.10;0.10;;;11.60;99.90;;;;;;5058423;28;20214;-79
2023/11/20 07:45:59;;;;;;;0.10;0.10;;;11.60;99.90;;;;;;5056213;28;20208;-79
2023/11/20 07:48:25;;;;;;;0.10;0.10;;;11.60;99.90;;;;;;5058456;28;20200;-79
2023/11/20 07:50:51;;;;;;;0.00;0.00;;;11.70;99.90;;;;;;5058541;28;20553;-79
2023/11/20 07:53:17;;;;;;;0.10;0.10;;;11.60;99.90;;;;;;5059813;28;20170;-79
2023/11/20 07:55:43;;;;;;;0.10;0.10;;;11.70;99.90;;;;;;5058318;28;20196;-79
2023/11/20 07:58:09;;;;;;;0.10;0.10;;;11.70;99.90;;;;;;5059568;28;20224;-79
2023/11/20 08:00:34;;;;;;;0.07;0.07;;;11.70;99.90;;;;;;5059777;28;20268;-78
2023/11/20 08:03:00;;;;;;;0.10;0.10;;;11.70;99.90;;;;;;5058845;28;21210;-78
2023/11/20 08:05:25;;;;;;;0.10;0.10;;;11.70;99.90;;;;;;5057898;28;20591;-79
2023/11/20 08:07:51;;;;;;;0.10;0.10;;;11.80;99.90;;;;;;5058515;28;20213;-79
2023/11/20 08:10:18;;;;;;;0.10;0.10;;;11.80;99.90;;;;;;5061493;28;21142;-79
2023/11/20 08:12:44;;;;;;;0.10;0.10;;;11.80;99.90;;;;;;5058655;28;20256;-79
2023/11/20 08:15:11;;;;;;;0.10;0.10;;;11.90;99.90;;;;;;5059392;28;20173;-79
2023/11/20 08:17:38;;;;;;;0.10;0.10;;;11.90;99.90;;;;;;5057498;28;20550;-78
2023/11/20 08:20:06;;;;;;;0.10;0.10;;;12.00;99.90;;;;;;5061330;28;20200;-79
2023/11/20 08:22:32;;;;;;;0.03;0.03;;;12.10;99.90;;;;;;5059788;28;20189;-78
2023/11/20 08:24:58;;;;;;;0.10;0.10;;;12.20;99.90;;;;;;5059081;28;20184;-79
2023/11/20 08:27:24;;;;;;;0.10;0.10;;;12.20;99.90;;;;;;5059339;28;20181;-78
2023/11/20 08:29:49;;;;;;;0.10;0.10;;;12.40;99.90;;;;;;5055525;28;20182;-78
2023/11/20 08:32:16;;;;;;;0.10;0.10;;;12.60;99.90;;;;;;5058759;28;20185;-78
2023/11/20 08:34:41;;;;;;;0.10;0.10;;;12.90;99.90;;;;;;5058848;28;20656;-79
2023/11/20 08:37:07;;;;;;;0.10;0.10;;;12.90;99.90;;;;;;5057211;28;20225;-79
2023/11/20 08:39:35;;;;;;;0.10;0.10;;;13.10;99.90;;;;;;5060913;28;20266;-80
2023/11/20 08:42:00;;;;;;;0.10;0.10;;;13.20;99.90;;;;;;5059687;28;20192;-79
2023/11/20 08:44:26;;;;;;;0.10;0.10;;;13.00;99.90;;;;;;5056911;28;20185;-78
2023/11/20 08:46:52;;;;;;;0.03;0.03;;;12.90;99.90;;;;;;5056711;28;20231;-78
2023/11/20 08:49:18;;;;;;;0.10;0.10;;;13.00;99.90;;;;;;5056807;28;20749;-79
2023/11/20 08:51:44;;;;;;;0.10;0.10;;;13.00;99.90;;;;;;5058572;28;20741;-79
2023/11/20 08:54:09;;;;;;;0.10;0.10;;;12.90;99.90;;;;;;5058802;28;20215;-79
2023/11/20 08:56:35;;;;;;;0.10;0.10;;;12.90;99.90;;;;;;5058332;28;20179;-78
2023/11/20 08:59:01;;;;;;;0.10;0.10;;;12.90;99.90;;;;;;5054059;28;20331;-78
2023/11/20 09:01:33;;;;;;;0.10;0.10;;;12.80;99.90;;;;;;5055009;28;20202;-79
2023/11/20 09:04:01;;;;;;;0.10;0.10;;;12.80;99.90;;;;;;5059619;28;20182;-79
2023/11/20 09:06:26;;;;;;;0.10;0.10;;;12.70;99.90;;;;;;5055214;28;20174;-78
2023/11/20 09:08:52;;;;;;;0.10;0.10;;;12.70;99.90;;;;;;5056246;28;20201;-79
2023/11/20 09:11:17;;;;;;;0.10;0.10;;;12.70;99.90;;;;;;5056553;28;20664;-78
2023/11/20 09:13:43;;;;;;;0.10;0.10;;;12.60;99.90;;;;;;5057022;28;20288;-79
2023/11/20 09:16:09;;;;;;;0.10;0.10;;;12.60;99.90;;;;;;5056498;28;20855;-79
2023/11/20 09:18:34;;;;;;;0.10;0.10;;;12.50;99.90;;;;;;5058541;28;20637;-79
2023/11/20 09:21:02;;;;;;;0.10;0.10;;;12.50;99.90;;;;;;5058247;28;20747;-79
2023/11/20 09:23:28;;;;;;;0.10;0.10;;;12.40;99.90;;;;;;5057342;28;20181;-79
2023/11/20 09:25:53;;;;;;;0.10;0.10;;;12.30;99.90;;;;;;5059128;28;20912;-79
2023/11/20 09:28:19;;;;;;;0.10;0.10;;;12.30;99.90;;;;;;5057269;28;20201;-80
2023/11/20 09:30:44;;;;;;;0.10;0.10;;;12.20;99.90;;;;;;5056490;28;20197;-80
2023/11/20 09:33:10;;;;;;;0.10;0.10;;;12.20;99.90;;;;;;5057643;28;20186;-80
2023/11/20 09:35:36;;;;;;;0.10;0.10;;;12.20;99.90;;;;;;5061026;28;20169;-79
2023/11/20 09:38:04;;;;;;;0.10;0.10;;;12.30;99.90;;;;;;5059775;28;20270;-80
2023/11/20 09:40:30;;;;;;;0.10;0.10;;;12.20;99.90;;;;;;5060040;28;20812;-79
2023/11/20 09:42:56;;;;;;;0.10;0.10;;;12.20;99.90;;;;;;5062739;28;20201;-79
2023/11/20 09:45:28;;;;;;;0.10;0.10;;;12.20;99.90;;;;;;5055844;28;21194;-79
2023/11/20 09:47:55;;;;;;;0.10;0.10;;;12.10;99.90;;;;;;5063505;28;20205;-80
2023/11/20 09:50:30;;;;;;;0.10;0.10;;;12.10;99.90;;;;;;5060600;28;20173;-80
2023/11/20 09:52:56;;;;;;;0.10;0.10;;;12.20;99.90;;;;;;5057154;28;20192;-79
2023/11/20 09:55:24;;;;;;;0.10;0.10;;;12.20;99.90;;;;;;5053543;28;20193;-80
2023/11/20 09:57:50;;;;;;;0.10;0.10;;;12.30;99.90;;;;;;5057469;28;20206;-79
2023/11/20 10:00:17;;;;;;;0.10;0.10;;;12.30;99.90;;;;;;5059818;28;20264;-79
2023/11/20 10:02:46;;;;;;;0.10;0.10;;;12.40;99.90;;;;;;5060655;28;20554;-79
2023/11/20 10:05:17;;;;;;;0.10;0.10;;;12.40;99.90;;;;;;5063687;28;20648;-79
2023/11/20 10:07:45;;;;;;;0.10;0.10;;;12.40;99.90;;;;;;5064420;28;20201;-79
2023/11/20 10:10:12;;;;;;;0.10;0.10;;;12.40;99.90;;;;;;5058718;28;20186;-80
2023/11/20 10:12:43;;;;;;;0.10;0.10;;;12.50;99.90;;;;;;5059376;28;20553;-79
2023/11/20 10:15:09;;;;;;;0.10;0.10;;;12.60;99.90;;;;;;5061632;28;20189;-79
2023/11/20 10:17:36;;;;;;;0.10;0.10;;;12.80;99.90;;;;;;5060501;28;20280;-78
2023/11/20 10:20:09;;;;;;;0.10;0.10;;;13.40;99.90;;;;;;5060351;28;20210;-79
2023/11/20 10:22:37;;;;;;;0.10;0.10;;;13.40;99.90;;;;;;5060438;28;20643;-79
2023/11/20 10:25:05;;;;;;;0.10;0.10;;;13.70;99.90;;;;;;5059935;28;20180;-80
2023/11/20 10:27:33;;;;;;;0.10;0.10;;;13.60;99.90;;;;;;5060680;28;20186;-79
2023/11/20 10:29:59;;;;;;;0.10;0.10;;;13.40;99.90;;;;;;5061140;28;20186;-79
2023/11/20 10:32:27;;;;;;;0.10;0.10;;;13.10;99.90;;;;;;5062068;28;20182;-79
2023/11/20 10:35:15;;;;;;;0.10;0.10;;;13.00;99.90;;;;;;5060706;28;20232;-79
2023/11/20 10:37:52;;;;;;;0.10;0.10;;;12.80;99.90;;;;;;5060919;28;20186;-80
2023/11/20 10:40:18;;;;;;;0.10;0.10;;;12.80;99.90;;;;;;5062267;28;20193;-79
2023/11/20 10:42:44;;;;;;;0.10;0.10;;;12.80;99.90;;;;;;5060532;28;20179;-79
2023/11/20 10:45:11;;;;;;;0.10;0.10;;;13.00;99.90;;;;;;5060243;28;20174;-79
2023/11/20 10:47:37;;;;;;;0.10;0.10;;;13.60;99.90;;;;;;5060597;28;20175;-79
2023/11/20 10:50:03;;;;;;;0.10;0.10;;;14.00;99.90;;;;;;5061169;28;20189;-79
2023/11/20 10:52:31;;;;;;;0.10;0.10;;;14.40;99.90;;;;;;5061821;28;20186;-80
2023/11/20 10:55:01;;;;;;;0.10;0.10;;;14.60;99.90;;;;;;5062162;28;20275;-80
2023/11/20 10:57:28;;;;;;;0.10;0.10;;;14.80;99.90;;;;;;5059788;28;20181;-80
2023/11/20 10:59:56;;;;;;;0.10;0.10;;;14.90;99.90;;;;;;5061764;28;20202;-80
2023/11/20 11:02:23;;;;;;;0.10;0.10;;;14.60;99.90;;;;;;5062365;28;20227;-79
2023/11/20 11:04:52;;;;;;;0.10;0.10;;;14.30;99.90;;;;;;5061422;28;20208;-79
2023/11/20 11:07:21;;;;;;;0.10;0.10;;;14.00;99.90;;;;;;5062616;28;20649;-80
2023/11/20 11:09:48;;;;;;;0.00;0.00;;;13.80;99.90;;;;;;5059245;28;20320;-80
2023/11/20 11:12:15;;;;;;;0.10;0.10;;;13.70;99.90;;;;;;5057598;28;20190;-80
2023/11/20 11:14:41;;;;;;;0.10;0.10;;;13.80;99.90;;;;;;5061073;28;20984;-80
2023/11/20 11:17:10;;;;;;;0.10;0.10;;;13.90;99.90;;;;;;5061129;28;20190;-80
2023/11/20 11:19:43;;;;;;;0.10;0.10;;;14.30;99.90;;;;;;5061765;28;20204;-80
2023/11/20 11:22:13;;;;;;;0.10;0.10;;;14.30;99.90;;;;;;5061877;28;20183;-79
2023/11/20 11:24:44;;;;;;;0.10;0.10;;;14.20;99.90;;;;;;5060437;28;20174;-79
2023/11/20 11:27:16;;;;;;;0.10;0.10;;;14.10;99.90;;;;;;5061061;28;20172;-79
2023/11/20 11:29:45;;;;;;;0.10;0.10;;;13.90;99.90;;;;;;5059630;28;20212;-79
2023/11/20 11:32:51;;;;;;;0.10;0.10;;;13.70;99.90;;;;;;5058388;28;20186;-80
2023/11/20 11:35:28;;;;;;;0.10;0.10;;;13.60;99.90;;;;;;5060060;28;20224;-80
2023/11/20 11:38:05;;;;;;;0.10;0.10;;;13.80;99.90;;;;;;5059926;28;20195;-80
2023/11/20 11:40:54;;;;;;;0.10;0.10;;;14.40;99.90;;;;;;5061505;28;20210;-79
2023/11/20 11:43:31;;;;;;;0.10;0.10;;;14.70;99.90;;;;;;5058881;28;20179;-79
2023/11/20 11:46:03;;;;;;;0.10;0.10;;;14.70;99.90;;;;;;5061568;28;20252;-79
2023/11/20 11:48:36;;;;;;;0.10;0.10;;;14.80;99.90;;;;;;5059762;28;20630;-80
2023/11/20 11:51:05;;;;;;;0.10;0.10;;;14.80;99.90;;;;;;5059312;28;20394;-80
2023/11/20 11:53:31;;;;;;;0.10;0.10;;;14.40;99.90;;;;;;5060442;28;20650;-80
2023/11/20 11:56:07;;;;;;;0.10;0.10;;;14.30;99.90;;;;;;5061900;28;20191;-80
2023/11/20 11:58:32;;;;;;;0.10;0.10;;;14.50;99.90;;;;;;5060399;28;20202;-80
2023/11/20 12:01:19;;;;;;;0.10;0.10;;;14.30;99.90;;;;;;5057373;28;20211;-79
2023/11/20 12:03:45;;;;;;;0.10;0.10;;;14.60;99.90;;;;;;5058317;28;20168;-80
2023/11/20 12:06:12;;;;;;;0.10;0.10;;;14.80;99.90;;;;;;5056583;28;20184;-79
2023/11/20 12:08:37;;;;;;;0.10;0.10;;;14.70;99.90;;;;;;5057485;28;20206;-79
2023/11/20 12:11:04;;;;;;;2.57;2.47;;;14.40;99.90;;;;;;5056278;28;20221;-79
2023/11/20 12:13:29;;;;;;;0.10;0.10;;;14.30;99.90;;;;;;5060651;28;20689;-79
2023/11/20 12:16:13;;;;;;;0.10;0.10;;;14.00;99.90;;;;;;5059687;28;20184;-79
2023/11/20 12:18:39;;;;;;;0.10;0.10;;;13.80;99.90;;;;;;5058609;28;20206;-79
2023/11/20 12:21:07;;;;;;;0.10;0.10;;;13.80;99.90;;;;;;5060054;28;20212;-79
2023/11/20 12:23:33;;;;;;;0.10;0.10;;;13.60;99.90;;;;;;5057003;28;20179;-79
2023/11/20 12:26:11;;;;;;;0.10;0.10;;;13.60;99.90;;;;;;5058529;28;20178;-79
2023/11/20 12:28:38;;;;;;;0.10;0.10;;;13.50;99.90;;;;;;5056405;28;20233;-79
2023/11/20 12:31:09;;;;;;;0.10;0.10;;;13.40;99.90;;;;;;5056831;28;20240;-79
2023/11/20 12:33:36;;;;;;;0.10;0.10;;;13.60;99.90;;;;;;5055501;28;20589;-79
2023/11/20 12:36:02;;;;;;;0.10;0.10;;;13.40;99.90;;;;;;5057544;28;20188;-79
2023/11/20 12:38:36;;;;;;;0.10;0.10;;;13.40;99.90;;;;;;5055857;28;20226;-79
2023/11/20 12:41:05;;;;;;;0.10;0.10;;;13.20;99.90;;;;;;5058936;28;20208;-79
2023/11/20 12:43:33;;;;;;;0.07;0.07;;;13.20;99.90;;;;;;5058863;28;20200;-79
2023/11/20 12:46:00;;;;;;;0.10;0.10;;;13.10;99.90;;;;;;5057567;28;20183;-79